sensor_id;sensor_type;location;lat;lon;timestamp;temperature;humidity
25556;DHT22;13447;57.174;-2.112;2022-08-01T00:00:07;14.20;99.90
25556;DHT22;13447;57.174;-2.112;2022-08-01T00:02:39;14.20;99.90
25556;DHT22;13447;57.174;-2.112;2022-08-01T00:05:08;14.20;99.90
25556;DHT22;13447;57.174;-2.112;2022-08-01T00:07:36;14.20;99.90
25556;DHT22;13447;57.174;-2.112;2022-08-01T00:10:07;14.20;99.90
25556;DHT22;13447;57.174;-2.112;2022-08-01T00:12:34;14.20;99.90
25556;DHT22;13447;57.174;-2.112;2022-08-01T00:15:02;14.20;99.90
25556;DHT22;13447;57.174;-2.112;2022-08-01T00:17:29;14.20;99.90
25556;DHT22;13447;57.174;-2.112;2022-08-01T00:19:56;14.20;99.90
25556;DHT22;13447;57.174;-2.112;2022-08-01T00:22:23;14.20;99.90
25556;DHT22;13447;57.174;-2.112;2022-08-01T00:24:50;14.20;99.90
25556;DHT22;13447;57.174;-2.112;2022-08-01T00:27:17;14.20;99.90
25556;DHT22;13447;57.174;-2.112;2022-08-01T00:29:44;14.20;99.90
25556;DHT22;13447;57.174;-2.112;2022-08-01T00:32:31;14.20;99.90
25556;DHT22;13447;57.174;-2.112;2022-08-01T00:34:58;14.20;99.90
25556;DHT22;13447;57.174;-2.112;2022-08-01T00:37:25;14.10;99.90
25556;DHT22;13447;57.174;-2.112;2022-08-01T00:39:52;14.10;99.90
25556;DHT22;13447;57.174;-2.112;2022-08-01T00:42:19;14.10;99.90
25556;DHT22;13447;57.174;-2.112;2022-08-01T00:44:46;14.00;99.90
25556;DHT22;13447;57.174;-2.112;2022-08-01T00:47:13;14.00;99.90
25556;DHT22;13447;57.174;-2.112;2022-08-01T00:49:40;14.00;99.90
25556;DHT22;13447;57.174;-2.112;2022-08-01T00:52:08;14.00;99.90
25556;DHT22;13447;57.174;-2.112;2022-08-01T00:54:36;14.00;99.90
25556;DHT22;13447;57.174;-2.112;2022-08-01T00:57:03;13.90;99.90
25556;DHT22;13447;57.174;-2.112;2022-08-01T00:59:36;13.90;99.90
25556;DHT22;13447;57.174;-2.112;2022-08-01T01:02:05;13.90;99.90
25556;DHT22;13447;57.174;-2.112;2022-08-01T01:04:42;13.90;99.90
25556;DHT22;13447;57.174;-2.112;2022-08-01T01:09:52;13.80;99.90
25556;DHT22;13447;57.174;-2.112;2022-08-01T01:12:56;13.80;99.90
25556;DHT22;13447;57.174;-2.112;2022-08-01T01:15:58;13.80;99.90
25556;DHT22;13447;57.174;-2.112;2022-08-01T01:18:30;13.70;99.90
25556;DHT22;13447;57.174;-2.112;2022-08-01T01:26:53;13.50;99.90
25556;DHT22;13447;57.174;-2.112;2022-08-01T01:29:30;13.40;99.90
25556;DHT22;13447;57.174;-2.112;2022-08-01T01:32:20;13.40;99.90
25556;DHT22;13447;57.174;-2.112;2022-08-01T01:34:56;13.30;99.90
25556;DHT22;13447;57.174;-2.112;2022-08-01T01:37:26;13.30;99.90
25556;DHT22;13447;57.174;-2.112;2022-08-01T01:39:54;13.20;99.90
25556;DHT22;13447;57.174;-2.112;2022-08-01T01:42:24;13.10;99.90
25556;DHT22;13447;57.174;-2.112;2022-08-01T01:44:53;13.10;99.90
25556;DHT22;13447;57.174;-2.112;2022-08-01T01:47:21;13.00;99.90
25556;DHT22;13447;57.174;-2.112;2022-08-01T01:49:49;13.00;99.90
25556;DHT22;13447;57.174;-2.112;2022-08-01T01:52:18;12.90;99.90
25556;DHT22;13447;57.174;-2.112;2022-08-01T01:54:48;12.90;99.90
25556;DHT22;13447;57.174;-2.112;2022-08-01T01:57:17;12.80;99.90
25556;DHT22;13447;57.174;-2.112;2022-08-01T01:59:46;12.80;99.90
25556;DHT22;13447;57.174;-2.112;2022-08-01T02:02:15;12.70;99.90
25556;DHT22;13447;57.174;-2.112;2022-08-01T02:04:45;12.70;99.90
25556;DHT22;13447;57.174;-2.112;2022-08-01T02:07:17;12.60;99.90
25556;DHT22;13447;57.174;-2.112;2022-08-01T02:09:45;12.60;99.90
25556;DHT22;13447;57.174;-2.112;2022-08-01T02:12:14;12.50;99.90
25556;DHT22;13447;57.174;-2.112;2022-08-01T02:14:44;12.60;99.90
25556;DHT22;13447;57.174;-2.112;2022-08-01T02:17:16;12.60;99.90
25556;DHT22;13447;57.174;-2.112;2022-08-01T02:19:43;12.60;99.90
25556;DHT22;13447;57.174;-2.112;2022-08-01T02:22:16;12.60;99.90
25556;DHT22;13447;57.174;-2.112;2022-08-01T02:30:32;12.70;99.90
25556;DHT22;13447;57.174;-2.112;2022-08-01T02:33:03;12.80;99.90
25556;DHT22;13447;57.174;-2.112;2022-08-01T02:35:38;12.80;99.90
25556;DHT22;13447;57.174;-2.112;2022-08-01T02:38:28;12.80;99.90
25556;DHT22;13447;57.174;-2.112;2022-08-01T02:41:02;12.70;99.90
25556;DHT22;13447;57.174;-2.112;2022-08-01T02:43:32;12.80;99.90
25556;DHT22;13447;57.174;-2.112;2022-08-01T02:46:02;12.90;99.90
25556;DHT22;13447;57.174;-2.112;2022-08-01T02:48:33;12.90;99.90
25556;DHT22;13447;57.174;-2.112;2022-08-01T02:51:02;12.90;99.90
25556;DHT22;13447;57.174;-2.112;2022-08-01T02:53:32;13.00;99.90
25556;DHT22;13447;57.174;-2.112;2022-08-01T02:56:11;13.00;99.90
25556;DHT22;13447;57.174;-2.112;2022-08-01T02:58:39;13.00;99.90
25556;DHT22;13447;57.174;-2.112;2022-08-01T03:01:08;13.00;99.90
25556;DHT22;13447;57.174;-2.112;2022-08-01T03:03:36;13.00;99.90
25556;DHT22;13447;57.174;-2.112;2022-08-01T03:06:04;13.10;99.90
25556;DHT22;13447;57.174;-2.112;2022-08-01T03:08:32;13.10;99.90
25556;DHT22;13447;57.174;-2.112;2022-08-01T03:11:01;13.10;99.90
25556;DHT22;13447;57.174;-2.112;2022-08-01T03:13:29;13.20;99.90
25556;DHT22;13447;57.174;-2.112;2022-08-01T03:15:58;13.20;99.90
25556;DHT22;13447;57.174;-2.112;2022-08-01T03:18:27;13.20;99.90
25556;DHT22;13447;57.174;-2.112;2022-08-01T03:20:55;13.20;99.90
25556;DHT22;13447;57.174;-2.112;2022-08-01T03:23:24;13.20;99.90
25556;DHT22;13447;57.174;-2.112;2022-08-01T03:26:05;13.20;99.90
25556;DHT22;13447;57.174;-2.112;2022-08-01T03:28:32;13.20;99.90
25556;DHT22;13447;57.174;-2.112;2022-08-01T03:31:00;13.30;99.90
25556;DHT22;13447;57.174;-2.112;2022-08-01T03:33:28;13.30;99.90
25556;DHT22;13447;57.174;-2.112;2022-08-01T03:35:56;13.30;99.90
25556;DHT22;13447;57.174;-2.112;2022-08-01T03:38:25;13.30;99.90
25556;DHT22;13447;57.174;-2.112;2022-08-01T03:40:56;13.30;99.90
25556;DHT22;13447;57.174;-2.112;2022-08-01T03:43:38;13.20;99.90
25556;DHT22;13447;57.174;-2.112;2022-08-01T03:46:12;13.30;99.90
25556;DHT22;13447;57.174;-2.112;2022-08-01T03:48:42;13.30;99.90
25556;DHT22;13447;57.174;-2.112;2022-08-01T03:51:10;13.40;99.90
25556;DHT22;13447;57.174;-2.112;2022-08-01T03:53:41;13.40;99.90
25556;DHT22;13447;57.174;-2.112;2022-08-01T03:56:10;13.40;99.90
25556;DHT22;13447;57.174;-2.112;2022-08-01T03:58:41;13.40;99.90
25556;DHT22;13447;57.174;-2.112;2022-08-01T04:01:09;13.40;99.90
25556;DHT22;13447;57.174;-2.112;2022-08-01T04:03:42;13.50;99.90
25556;DHT22;13447;57.174;-2.112;2022-08-01T04:06:10;13.50;99.90
25556;DHT22;13447;57.174;-2.112;2022-08-01T04:08:38;13.50;99.90
25556;DHT22;13447;57.174;-2.112;2022-08-01T04:11:05;13.50;99.90
25556;DHT22;13447;57.174;-2.112;2022-08-01T04:13:34;13.50;99.90
25556;DHT22;13447;57.174;-2.112;2022-08-01T04:16:03;13.60;99.90
25556;DHT22;13447;57.174;-2.112;2022-08-01T04:18:30;13.60;99.90
25556;DHT22;13447;57.174;-2.112;2022-08-01T04:20:57;13.60;99.90
25556;DHT22;13447;57.174;-2.112;2022-08-01T04:23:25;13.60;99.90
25556;DHT22;13447;57.174;-2.112;2022-08-01T04:25:55;13.60;99.90
25556;DHT22;13447;57.174;-2.112;2022-08-01T04:28:23;13.60;99.90
25556;DHT22;13447;57.174;-2.112;2022-08-01T04:30:54;13.60;99.90
25556;DHT22;13447;57.174;-2.112;2022-08-01T04:33:28;13.70;99.90
25556;DHT22;13447;57.174;-2.112;2022-08-01T04:35:58;13.70;99.90
25556;DHT22;13447;57.174;-2.112;2022-08-01T04:38:33;13.70;99.90
25556;DHT22;13447;57.174;-2.112;2022-08-01T04:41:05;13.70;99.90
25556;DHT22;13447;57.174;-2.112;2022-08-01T04:43:38;13.70;99.90
25556;DHT22;13447;57.174;-2.112;2022-08-01T04:46:09;13.70;99.90
25556;DHT22;13447;57.174;-2.112;2022-08-01T04:48:38;13.70;99.90
25556;DHT22;13447;57.174;-2.112;2022-08-01T04:51:15;13.70;99.90
25556;DHT22;13447;57.174;-2.112;2022-08-01T04:53:43;13.70;99.90
25556;DHT22;13447;57.174;-2.112;2022-08-01T04:56:10;13.70;99.90
25556;DHT22;13447;57.174;-2.112;2022-08-01T04:58:41;13.70;99.90
25556;DHT22;13447;57.174;-2.112;2022-08-01T05:01:09;13.80;99.90
25556;DHT22;13447;57.174;-2.112;2022-08-01T05:03:37;13.80;99.90
25556;DHT22;13447;57.174;-2.112;2022-08-01T05:06:05;13.80;99.90
25556;DHT22;13447;57.174;-2.112;2022-08-01T05:08:32;13.80;99.90
25556;DHT22;13447;57.174;-2.112;2022-08-01T05:10:59;13.80;99.90
25556;DHT22;13447;57.174;-2.112;2022-08-01T05:13:27;13.80;99.90
25556;DHT22;13447;57.174;-2.112;2022-08-01T05:15:54;13.80;99.90
25556;DHT22;13447;57.174;-2.112;2022-08-01T05:18:22;13.80;99.90
25556;DHT22;13447;57.174;-2.112;2022-08-01T05:20:54;13.80;99.90
25556;DHT22;13447;57.174;-2.112;2022-08-01T05:23:21;13.70;99.90
25556;DHT22;13447;57.174;-2.112;2022-08-01T05:26:08;13.70;99.90
25556;DHT22;13447;57.174;-2.112;2022-08-01T05:28:35;13.80;99.90
25556;DHT22;13447;57.174;-2.112;2022-08-01T05:31:03;13.80;99.90
25556;DHT22;13447;57.174;-2.112;2022-08-01T05:33:30;13.90;99.90
25556;DHT22;13447;57.174;-2.112;2022-08-01T05:35:57;13.90;99.90
25556;DHT22;13447;57.174;-2.112;2022-08-01T05:38:24;14.00;99.90
25556;DHT22;13447;57.174;-2.112;2022-08-01T05:40:51;14.00;99.90
25556;DHT22;13447;57.174;-2.112;2022-08-01T05:43:18;14.00;99.90
25556;DHT22;13447;57.174;-2.112;2022-08-01T05:45:46;14.10;99.90
25556;DHT22;13447;57.174;-2.112;2022-08-01T05:48:13;14.10;99.90
25556;DHT22;13447;57.174;-2.112;2022-08-01T05:50:40;14.20;99.90
25556;DHT22;13447;57.174;-2.112;2022-08-01T05:53:07;14.20;99.90
25556;DHT22;13447;57.174;-2.112;2022-08-01T05:55:35;14.20;99.90
25556;DHT22;13447;57.174;-2.112;2022-08-01T05:58:02;14.20;99.90
25556;DHT22;13447;57.174;-2.112;2022-08-01T06:00:29;14.20;99.90
25556;DHT22;13447;57.174;-2.112;2022-08-01T06:02:56;14.20;99.90
25556;DHT22;13447;57.174;-2.112;2022-08-01T06:05:23;14.20;99.90
25556;DHT22;13447;57.174;-2.112;2022-08-01T06:07:50;14.20;99.90
25556;DHT22;13447;57.174;-2.112;2022-08-01T06:10:17;14.30;99.90
25556;DHT22;13447;57.174;-2.112;2022-08-01T06:12:45;14.50;99.90
25556;DHT22;13447;57.174;-2.112;2022-08-01T06:15:12;14.50;99.90
25556;DHT22;13447;57.174;-2.112;2022-08-01T06:17:39;14.50;99.90
25556;DHT22;13447;57.174;-2.112;2022-08-01T06:20:08;14.50;99.90
25556;DHT22;13447;57.174;-2.112;2022-08-01T06:22:35;14.50;99.90
25556;DHT22;13447;57.174;-2.112;2022-08-01T06:25:04;14.70;99.90
25556;DHT22;13447;57.174;-2.112;2022-08-01T06:27:34;14.90;99.90
25556;DHT22;13447;57.174;-2.112;2022-08-01T06:30:01;14.90;99.90
25556;DHT22;13447;57.174;-2.112;2022-08-01T06:32:28;15.10;99.90
25556;DHT22;13447;57.174;-2.112;2022-08-01T06:34:56;15.30;99.90
25556;DHT22;13447;57.174;-2.112;2022-08-01T06:37:23;15.30;99.90
25556;DHT22;13447;57.174;-2.112;2022-08-01T06:39:50;15.40;99.90
25556;DHT22;13447;57.174;-2.112;2022-08-01T06:42:17;15.50;99.90
25556;DHT22;13447;57.174;-2.112;2022-08-01T06:44:44;15.50;99.90
25556;DHT22;13447;57.174;-2.112;2022-08-01T06:47:11;15.60;99.90
25556;DHT22;13447;57.174;-2.112;2022-08-01T06:49:38;15.70;99.90
25556;DHT22;13447;57.174;-2.112;2022-08-01T06:52:05;15.80;99.90
25556;DHT22;13447;57.174;-2.112;2022-08-01T06:54:33;15.80;99.90
25556;DHT22;13447;57.174;-2.112;2022-08-01T06:57:00;15.70;99.90
25556;DHT22;13447;57.174;-2.112;2022-08-01T06:59:27;15.80;99.90
25556;DHT22;13447;57.174;-2.112;2022-08-01T07:01:54;15.80;99.90
25556;DHT22;13447;57.174;-2.112;2022-08-01T07:04:21;15.90;99.90
25556;DHT22;13447;57.174;-2.112;2022-08-01T07:06:48;16.00;99.90
25556;DHT22;13447;57.174;-2.112;2022-08-01T07:09:15;16.00;99.90
25556;DHT22;13447;57.174;-2.112;2022-08-01T07:11:42;16.10;99.90
25556;DHT22;13447;57.174;-2.112;2022-08-01T07:14:09;16.30;99.90
25556;DHT22;13447;57.174;-2.112;2022-08-01T07:16:36;16.50;99.90
25556;DHT22;13447;57.174;-2.112;2022-08-01T07:19:03;16.60;99.90
25556;DHT22;13447;57.174;-2.112;2022-08-01T07:21:30;16.60;99.90
25556;DHT22;13447;57.174;-2.112;2022-08-01T07:24:08;16.70;99.90
25556;DHT22;13447;57.174;-2.112;2022-08-01T07:26:43;16.70;99.90
25556;DHT22;13447;57.174;-2.112;2022-08-01T07:29:18;16.80;99.90
25556;DHT22;13447;57.174;-2.112;2022-08-01T07:31:45;17.00;99.90
25556;DHT22;13447;57.174;-2.112;2022-08-01T07:34:12;17.20;99.90
25556;DHT22;13447;57.174;-2.112;2022-08-01T07:36:39;17.20;99.90
25556;DHT22;13447;57.174;-2.112;2022-08-01T07:39:06;17.20;99.90
25556;DHT22;13447;57.174;-2.112;2022-08-01T07:41:33;17.30;99.90
25556;DHT22;13447;57.174;-2.112;2022-08-01T07:44:20;17.20;99.90
25556;DHT22;13447;57.174;-2.112;2022-08-01T07:46:47;17.10;99.90
25556;DHT22;13447;57.174;-2.112;2022-08-01T07:49:14;17.20;99.90
25556;DHT22;13447;57.174;-2.112;2022-08-01T07:51:41;17.20;99.90
25556;DHT22;13447;57.174;-2.112;2022-08-01T07:54:28;17.20;99.90
25556;DHT22;13447;57.174;-2.112;2022-08-01T07:57:00;17.10;99.90
25556;DHT22;13447;57.174;-2.112;2022-08-01T07:59:27;17.10;99.90
25556;DHT22;13447;57.174;-2.112;2022-08-01T08:01:54;17.10;99.90
25556;DHT22;13447;57.174;-2.112;2022-08-01T08:04:21;17.30;99.90
25556;DHT22;13447;57.174;-2.112;2022-08-01T08:06:48;17.50;99.90
25556;DHT22;13447;57.174;-2.112;2022-08-01T08:09:16;17.30;99.90
25556;DHT22;13447;57.174;-2.112;2022-08-01T08:11:44;17.50;99.90
25556;DHT22;13447;57.174;-2.112;2022-08-01T08:14:15;17.60;99.90
25556;DHT22;13447;57.174;-2.112;2022-08-01T08:16:43;17.40;99.90
25556;DHT22;13447;57.174;-2.112;2022-08-01T08:19:11;17.30;99.90
25556;DHT22;13447;57.174;-2.112;2022-08-01T08:21:38;17.30;99.90
25556;DHT22;13447;57.174;-2.112;2022-08-01T08:24:07;17.50;99.90
25556;DHT22;13447;57.174;-2.112;2022-08-01T08:27:00;17.60;99.90
25556;DHT22;13447;57.174;-2.112;2022-08-01T08:29:30;17.50;99.90
25556;DHT22;13447;57.174;-2.112;2022-08-01T08:31:59;17.50;99.90
25556;DHT22;13447;57.174;-2.112;2022-08-01T08:34:28;17.70;99.90
25556;DHT22;13447;57.174;-2.112;2022-08-01T08:36:56;17.70;99.90
25556;DHT22;13447;57.174;-2.112;2022-08-01T08:39:25;17.90;99.90
25556;DHT22;13447;57.174;-2.112;2022-08-01T08:41:52;18.00;99.90
25556;DHT22;13447;57.174;-2.112;2022-08-01T08:44:19;18.00;99.90
25556;DHT22;13447;57.174;-2.112;2022-08-01T08:46:51;18.00;99.90
25556;DHT22;13447;57.174;-2.112;2022-08-01T08:49:27;17.90;99.90
25556;DHT22;13447;57.174;-2.112;2022-08-01T08:52:03;17.90;99.90
25556;DHT22;13447;57.174;-2.112;2022-08-01T08:54:36;18.00;99.90
25556;DHT22;13447;57.174;-2.112;2022-08-01T08:57:04;17.90;99.90
25556;DHT22;13447;57.174;-2.112;2022-08-01T08:59:31;18.10;99.90
25556;DHT22;13447;57.174;-2.112;2022-08-01T09:01:59;18.30;99.90
25556;DHT22;13447;57.174;-2.112;2022-08-01T09:04:26;18.50;99.90
25556;DHT22;13447;57.174;-2.112;2022-08-01T09:06:54;18.40;99.90
25556;DHT22;13447;57.174;-2.112;2022-08-01T09:09:22;18.90;99.90
25556;DHT22;13447;57.174;-2.112;2022-08-01T09:11:49;19.30;99.90
25556;DHT22;13447;57.174;-2.112;2022-08-01T09:14:23;19.70;99.70
25556;DHT22;13447;57.174;-2.112;2022-08-01T09:17:07;19.80;97.00
25556;DHT22;13447;57.174;-2.112;2022-08-01T09:19:43;20.50;98.50
25556;DHT22;13447;57.174;-2.112;2022-08-01T09:22:18;20.70;95.00
25556;DHT22;13447;57.174;-2.112;2022-08-01T09:25:08;20.50;96.50
25556;DHT22;13447;57.174;-2.112;2022-08-01T09:27:37;20.60;97.20
25556;DHT22;13447;57.174;-2.112;2022-08-01T09:30:14;20.40;96.20
25556;DHT22;13447;57.174;-2.112;2022-08-01T09:33:00;20.10;91.80
25556;DHT22;13447;57.174;-2.112;2022-08-01T09:35:35;19.90;93.00
25556;DHT22;13447;57.174;-2.112;2022-08-01T09:38:22;20.40;92.10
25556;DHT22;13447;57.174;-2.112;2022-08-01T09:40:55;20.30;91.40
25556;DHT22;13447;57.174;-2.112;2022-08-01T09:43:26;19.60;93.00
25556;DHT22;13447;57.174;-2.112;2022-08-01T09:45:54;19.60;96.10
25556;DHT22;13447;57.174;-2.112;2022-08-01T09:48:24;19.40;96.00
25556;DHT22;13447;57.174;-2.112;2022-08-01T09:50:56;19.10;96.50
25556;DHT22;13447;57.174;-2.112;2022-08-01T09:53:44;19.30;96.60
25556;DHT22;13447;57.174;-2.112;2022-08-01T09:56:17;18.90;96.80
25556;DHT22;13447;57.174;-2.112;2022-08-01T09:58:58;19.00;97.10
25556;DHT22;13447;57.174;-2.112;2022-08-01T10:01:39;19.20;96.50
25556;DHT22;13447;57.174;-2.112;2022-08-01T10:04:10;19.10;95.30
25556;DHT22;13447;57.174;-2.112;2022-08-01T10:06:39;19.50;95.00
25556;DHT22;13447;57.174;-2.112;2022-08-01T10:09:09;20.20;92.70
25556;DHT22;13447;57.174;-2.112;2022-08-01T10:11:37;20.90;90.80
25556;DHT22;13447;57.174;-2.112;2022-08-01T10:14:06;21.20;87.40
25556;DHT22;13447;57.174;-2.112;2022-08-01T10:16:39;21.40;89.50
25556;DHT22;13447;57.174;-2.112;2022-08-01T10:19:07;21.50;85.40
25556;DHT22;13447;57.174;-2.112;2022-08-01T10:21:45;21.20;86.00
25556;DHT22;13447;57.174;-2.112;2022-08-01T10:24:27;21.30;89.40
25556;DHT22;13447;57.174;-2.112;2022-08-01T10:26:58;21.20;87.80
25556;DHT22;13447;57.174;-2.112;2022-08-01T10:29:41;21.10;87.80
25556;DHT22;13447;57.174;-2.112;2022-08-01T10:32:26;21.20;87.00
25556;DHT22;13447;57.174;-2.112;2022-08-01T10:34:55;21.50;87.20
25556;DHT22;13447;57.174;-2.112;2022-08-01T10:37:24;21.70;84.90
25556;DHT22;13447;57.174;-2.112;2022-08-01T10:39:54;22.10;85.00
25556;DHT22;13447;57.174;-2.112;2022-08-01T10:42:43;21.90;81.10
25556;DHT22;13447;57.174;-2.112;2022-08-01T10:45:15;21.90;82.60
25556;DHT22;13447;57.174;-2.112;2022-08-01T10:48:02;22.10;83.70
25556;DHT22;13447;57.174;-2.112;2022-08-01T10:50:44;22.40;79.40
25556;DHT22;13447;57.174;-2.112;2022-08-01T10:53:23;22.30;76.50
25556;DHT22;13447;57.174;-2.112;2022-08-01T10:56:08;22.20;75.00
25556;DHT22;13447;57.174;-2.112;2022-08-01T10:58:43;22.60;75.10
25556;DHT22;13447;57.174;-2.112;2022-08-01T11:01:22;22.90;75.10
25556;DHT22;13447;57.174;-2.112;2022-08-01T11:08:57;22.20;73.80
25556;DHT22;13447;57.174;-2.112;2022-08-01T11:11:26;22.50;72.00
25556;DHT22;13447;57.174;-2.112;2022-08-01T11:16:29;23.00;68.40
25556;DHT22;13447;57.174;-2.112;2022-08-01T11:18:58;23.60;67.60
25556;DHT22;13447;57.174;-2.112;2022-08-01T11:27:32;22.90;65.90
25556;DHT22;13447;57.174;-2.112;2022-08-01T11:35:35;22.90;71.70
25556;DHT22;13447;57.174;-2.112;2022-08-01T11:38:24;22.80;71.30
25556;DHT22;13447;57.174;-2.112;2022-08-01T11:41:21;22.70;71.70
25556;DHT22;13447;57.174;-2.112;2022-08-01T11:52:29;22.50;71.10
25556;DHT22;13447;57.174;-2.112;2022-08-01T11:55:04;22.20;69.80
25556;DHT22;13447;57.174;-2.112;2022-08-01T11:57:36;21.70;71.80
25556;DHT22;13447;57.174;-2.112;2022-08-01T12:00:13;21.80;72.80
25556;DHT22;13447;57.174;-2.112;2022-08-01T12:02:45;22.00;70.50
25556;DHT22;13447;57.174;-2.112;2022-08-01T12:05:14;21.80;71.10
25556;DHT22;13447;57.174;-2.112;2022-08-01T12:07:44;22.10;68.40
25556;DHT22;13447;57.174;-2.112;2022-08-01T12:10:14;21.80;68.00
25556;DHT22;13447;57.174;-2.112;2022-08-01T12:12:47;21.90;69.70
25556;DHT22;13447;57.174;-2.112;2022-08-01T12:15:20;21.90;67.90
25556;DHT22;13447;57.174;-2.112;2022-08-01T12:17:51;21.90;64.00
25556;DHT22;13447;57.174;-2.112;2022-08-01T12:20:31;22.10;63.40
25556;DHT22;13447;57.174;-2.112;2022-08-01T12:23:00;22.00;65.20
25556;DHT22;13447;57.174;-2.112;2022-08-01T12:25:28;22.00;61.60
25556;DHT22;13447;57.174;-2.112;2022-08-01T12:28:03;21.80;62.50
25556;DHT22;13447;57.174;-2.112;2022-08-01T12:30:31;21.70;61.80
25556;DHT22;13447;57.174;-2.112;2022-08-01T12:33:07;21.90;61.40
25556;DHT22;13447;57.174;-2.112;2022-08-01T12:35:35;22.00;62.60
25556;DHT22;13447;57.174;-2.112;2022-08-01T12:38:06;22.10;62.60
25556;DHT22;13447;57.174;-2.112;2022-08-01T12:40:35;21.90;61.40
25556;DHT22;13447;57.174;-2.112;2022-08-01T12:43:09;22.60;60.60
25556;DHT22;13447;57.174;-2.112;2022-08-01T12:45:53;22.70;59.50
25556;DHT22;13447;57.174;-2.112;2022-08-01T12:48:23;23.00;59.00
25556;DHT22;13447;57.174;-2.112;2022-08-01T12:50:52;22.40;56.80
25556;DHT22;13447;57.174;-2.112;2022-08-01T12:53:20;22.50;58.30
25556;DHT22;13447;57.174;-2.112;2022-08-01T12:55:53;22.30;57.60
25556;DHT22;13447;57.174;-2.112;2022-08-01T12:58:31;22.60;59.60
25556;DHT22;13447;57.174;-2.112;2022-08-01T13:01:07;22.30;57.10
25556;DHT22;13447;57.174;-2.112;2022-08-01T13:03:35;22.40;59.80
25556;DHT22;13447;57.174;-2.112;2022-08-01T13:06:11;22.70;59.50
25556;DHT22;13447;57.174;-2.112;2022-08-01T13:08:39;22.70;56.60
25556;DHT22;13447;57.174;-2.112;2022-08-01T13:11:08;22.60;58.70
25556;DHT22;13447;57.174;-2.112;2022-08-01T13:13:51;22.80;58.20
25556;DHT22;13447;57.174;-2.112;2022-08-01T13:16:22;22.90;55.70
25556;DHT22;13447;57.174;-2.112;2022-08-01T13:19:00;22.80;56.50
25556;DHT22;13447;57.174;-2.112;2022-08-01T13:21:31;22.10;56.10
25556;DHT22;13447;57.174;-2.112;2022-08-01T13:24:24;21.80;57.40
25556;DHT22;13447;57.174;-2.112;2022-08-01T13:27:02;22.00;58.10
25556;DHT22;13447;57.174;-2.112;2022-08-01T13:29:34;22.10;58.50
25556;DHT22;13447;57.174;-2.112;2022-08-01T13:32:19;22.30;58.50
25556;DHT22;13447;57.174;-2.112;2022-08-01T13:35:07;21.70;59.00
25556;DHT22;13447;57.174;-2.112;2022-08-01T13:37:36;21.40;59.50
25556;DHT22;13447;57.174;-2.112;2022-08-01T13:40:05;21.20;61.10
25556;DHT22;13447;57.174;-2.112;2022-08-01T13:42:33;21.00;61.80
25556;DHT22;13447;57.174;-2.112;2022-08-01T13:45:01;20.60;63.40
25556;DHT22;13447;57.174;-2.112;2022-08-01T13:47:29;20.40;63.30
25556;DHT22;13447;57.174;-2.112;2022-08-01T13:49:59;20.30;64.30
25556;DHT22;13447;57.174;-2.112;2022-08-01T13:52:29;20.10;64.50
25556;DHT22;13447;57.174;-2.112;2022-08-01T13:57:25;19.60;64.30
25556;DHT22;13447;57.174;-2.112;2022-08-01T14:00:04;19.70;64.90
25556;DHT22;13447;57.174;-2.112;2022-08-01T14:02:32;19.40;65.90
25556;DHT22;13447;57.174;-2.112;2022-08-01T14:04:59;19.10;66.70
25556;DHT22;13447;57.174;-2.112;2022-08-01T14:07:26;19.10;65.40
25556;DHT22;13447;57.174;-2.112;2022-08-01T14:09:54;19.30;66.80
25556;DHT22;13447;57.174;-2.112;2022-08-01T14:12:41;19.30;65.80
25556;DHT22;13447;57.174;-2.112;2022-08-01T14:15:11;19.40;67.10
25556;DHT22;13447;57.174;-2.112;2022-08-01T14:17:39;19.60;64.00
25556;DHT22;13447;57.174;-2.112;2022-08-01T14:20:13;19.40;63.00
25556;DHT22;13447;57.174;-2.112;2022-08-01T14:22:40;19.30;64.60
25556;DHT22;13447;57.174;-2.112;2022-08-01T14:25:07;19.40;65.00
25556;DHT22;13447;57.174;-2.112;2022-08-01T14:27:35;19.40;65.40
25556;DHT22;13447;57.174;-2.112;2022-08-01T14:30:03;19.50;65.00
25556;DHT22;13447;57.174;-2.112;2022-08-01T14:32:31;19.50;64.60
25556;DHT22;13447;57.174;-2.112;2022-08-01T14:35:04;19.50;65.00
25556;DHT22;13447;57.174;-2.112;2022-08-01T14:37:32;19.20;63.50
25556;DHT22;13447;57.174;-2.112;2022-08-01T14:40:05;19.00;65.10
25556;DHT22;13447;57.174;-2.112;2022-08-01T14:42:37;19.00;66.80
25556;DHT22;13447;57.174;-2.112;2022-08-01T14:45:05;19.10;66.30
25556;DHT22;13447;57.174;-2.112;2022-08-01T14:47:36;19.20;66.70
25556;DHT22;13447;57.174;-2.112;2022-08-01T14:50:09;19.10;67.50
25556;DHT22;13447;57.174;-2.112;2022-08-01T14:52:37;18.90;66.70
25556;DHT22;13447;57.174;-2.112;2022-08-01T14:55:06;18.80;68.80
25556;DHT22;13447;57.174;-2.112;2022-08-01T14:57:34;18.90;68.50
25556;DHT22;13447;57.174;-2.112;2022-08-01T15:00:07;18.90;68.10
25556;DHT22;13447;57.174;-2.112;2022-08-01T15:02:39;19.00;67.60
25556;DHT22;13447;57.174;-2.112;2022-08-01T15:05:07;19.10;67.60
25556;DHT22;13447;57.174;-2.112;2022-08-01T15:07:35;19.20;67.60
25556;DHT22;13447;57.174;-2.112;2022-08-01T15:10:19;19.20;67.70
25556;DHT22;13447;57.174;-2.112;2022-08-01T15:12:46;19.40;66.70
25556;DHT22;13447;57.174;-2.112;2022-08-01T15:15:16;19.40;66.40
25556;DHT22;13447;57.174;-2.112;2022-08-01T15:17:43;19.30;67.40
25556;DHT22;13447;57.174;-2.112;2022-08-01T15:20:10;19.30;68.00
25556;DHT22;13447;57.174;-2.112;2022-08-01T15:22:37;19.40;69.10
25556;DHT22;13447;57.174;-2.112;2022-08-01T15:25:04;19.40;68.60
25556;DHT22;13447;57.174;-2.112;2022-08-01T15:27:31;19.30;68.30
25556;DHT22;13447;57.174;-2.112;2022-08-01T15:29:58;19.30;68.30
25556;DHT22;13447;57.174;-2.112;2022-08-01T15:32:25;19.20;68.40
25556;DHT22;13447;57.174;-2.112;2022-08-01T15:34:52;19.20;67.90
25556;DHT22;13447;57.174;-2.112;2022-08-01T15:37:20;19.30;68.50
25556;DHT22;13447;57.174;-2.112;2022-08-01T15:39:48;19.30;67.30
25556;DHT22;13447;57.174;-2.112;2022-08-01T15:42:20;19.30;67.00
25556;DHT22;13447;57.174;-2.112;2022-08-01T15:44:51;19.40;65.20
25556;DHT22;13447;57.174;-2.112;2022-08-01T15:47:17;19.30;66.30
25556;DHT22;13447;57.174;-2.112;2022-08-01T15:49:44;19.50;66.00
25556;DHT22;13447;57.174;-2.112;2022-08-01T15:52:18;19.50;65.30
25556;DHT22;13447;57.174;-2.112;2022-08-01T15:54:48;19.50;65.00
25556;DHT22;13447;57.174;-2.112;2022-08-01T15:57:15;19.50;65.20
25556;DHT22;13447;57.174;-2.112;2022-08-01T15:59:42;19.50;65.50
25556;DHT22;13447;57.174;-2.112;2022-08-01T16:02:09;19.40;65.00
25556;DHT22;13447;57.174;-2.112;2022-08-01T16:04:37;19.40;65.10
25556;DHT22;13447;57.174;-2.112;2022-08-01T16:07:05;19.40;65.90
25556;DHT22;13447;57.174;-2.112;2022-08-01T16:09:32;19.40;66.00
25556;DHT22;13447;57.174;-2.112;2022-08-01T16:11:59;19.50;67.00
25556;DHT22;13447;57.174;-2.112;2022-08-01T16:14:26;19.50;67.10
25556;DHT22;13447;57.174;-2.112;2022-08-01T16:16:53;19.50;66.70
25556;DHT22;13447;57.174;-2.112;2022-08-01T16:19:20;19.50;66.50
25556;DHT22;13447;57.174;-2.112;2022-08-01T16:21:47;19.50;66.70